»·PEaware :: N448RA KSMX-KBFL

N448RA :: KSMX-KBFL

FLIGHT INFORMATION

Flight Status: Arrived
Operator: Privately registered:
United States
More flights under this callsign
Pilot: Scott M. (16181)
Aircraft: Unknown
(DA62)
More flights by this aircraft type
Origin: KSMX Santa Maria Pub/Capt Hancock
United States
Destination: KBFL Meadows
United States
More flights between these airports :: More routes between these airports
Route:
File this flight plan on PilotEdge
Remarks:
Altitude:
(Current/Filed)
7,500ft
Speed:
(Current/Filed)
150kts
Departed: 25-Oct-18 05:03 PM
Arrived: 25-Oct-18 05:40 PM
Distance/Time
Traveled:
76nm/0:37
Distance/Time
To Go:
Arrived

Flight Plot

Page will automatically refresh every two minutes.


Map Options




Map Legend


Flown Route
Filed Route
Departure Airport
Arrival Airport
Navaid (VOR, NDB)
Fix

Horizontal Profiles

Position Reports

Time Latitude Longitude Heading Altitude Ground
Speed
25-Oct-18 16:55 34.896802 -120.445897 273 265ft 0kts
25-Oct-18 16:56 34.896802 -120.445897 273 265ft 0kts
25-Oct-18 16:57 34.896802 -120.445897 273 265ft 0kts
25-Oct-18 16:58 34.896802 -120.445897 273 265ft 0kts
25-Oct-18 16:59 34.896802 -120.445897 273 265ft 0kts
25-Oct-18 17:00 34.896862 -120.446266 277 265ft 3kts
25-Oct-18 17:01 34.895313 -120.446307 138 265ft 12kts
25-Oct-18 17:02 34.893305 -120.444943 211 265ft 0kts
25-Oct-18 17:03 34.893305 -120.444943 211 265ft 0kts
25-Oct-18 17:04 34.892809 -120.445646 295 265ft 13kts
25-Oct-18 17:05 34.903985 -120.459640 313 534ft 91kts
25-Oct-18 17:06 34.924850 -120.463391 41 1465ft 116kts
25-Oct-18 17:07 34.942075 -120.429599 58 2408ft 122kts
25-Oct-18 17:08 34.949141 -120.387647 87 3283ft 132kts
25-Oct-18 17:09 34.947619 -120.343074 81 4194ft 131kts
25-Oct-18 17:10 34.956548 -120.300499 65 5080ft 129kts
25-Oct-18 17:11 34.970364 -120.260364 61 5968ft 128kts
25-Oct-18 17:12 34.985337 -120.221026 60 6857ft 128kts
25-Oct-18 17:13 35.000891 -120.181155 60 7502ft 142kts
25-Oct-18 17:14 35.019551 -120.133373 61 7500ft 164kts
25-Oct-18 17:15 35.039590 -120.082016 61 7499ft 169kts
25-Oct-18 17:16 35.059906 -120.029942 61 7498ft 171kts
25-Oct-18 17:17 35.080391 -119.977398 61 7498ft 171kts
25-Oct-18 17:18 35.100805 -119.924944 61 7499ft 171kts
25-Oct-18 17:19 35.119967 -119.875615 61 7383ft 169kts
25-Oct-18 17:20 35.140099 -119.823757 61 6883ft 168kts
25-Oct-18 17:21 35.160068 -119.772230 62 6388ft 168kts
25-Oct-18 17:22 35.180036 -119.720593 62 5892ft 168kts
25-Oct-18 17:23 35.199881 -119.669197 62 5482ft 165kts
25-Oct-18 17:24 35.218874 -119.619921 62 5484ft 155kts
25-Oct-18 17:25 35.236996 -119.573092 62 5492ft 151kts
25-Oct-18 17:26 35.254832 -119.526795 62 5499ft 149kts
25-Oct-18 17:27 35.272396 -119.481042 62 5158ft 148kts
25-Oct-18 17:28 35.289713 -119.435878 62 4660ft 145kts
25-Oct-18 17:29 35.306820 -119.391196 62 4163ft 144kts
25-Oct-18 17:30 35.323730 -119.346963 63 3668ft 143kts
25-Oct-18 17:31 35.340080 -119.304132 63 3069ft 141kts
25-Oct-18 17:32 35.356468 -119.261160 64 2364ft 138kts
25-Oct-18 17:33 35.372326 -119.219522 64 1669ft 135kts
25-Oct-18 17:34 35.386865 -119.181446 62 1493ft 114kts
25-Oct-18 17:35 35.400913 -119.147183 63 1498ft 113kts
25-Oct-18 17:36 35.414097 -119.118416 53 1529ft 93kts
25-Oct-18 17:37 35.428496 -119.092007 60 1465ft 93kts
25-Oct-18 17:38 35.420508 -119.063931 135 1452ft 96kts
25-Oct-18 17:39 35.402340 -119.042932 138 1269ft 87kts
25-Oct-18 17:40 35.411477 -119.027587 305 1044ft 85kts
25-Oct-18 17:41 35.428049 -119.049136 314 634ft 89kts
25-Oct-18 17:42 35.436179 -119.056814 129 499ft 23kts
25-Oct-18 17:43 35.432444 -119.052432 152 499ft 7kts
25-Oct-18 17:44 35.429629 -119.048872 135 499ft 13kts
25-Oct-18 17:45 35.429501 -119.046534 138 499ft 0kts

Navigation Log

Ident Type
1. KSMX Airport
2. KBFL Airport